Gooik, Belgium
Current Conditions -  °F | °C
As of 2:25 AM on Wednesday 22 Oct 2014 (Local Time) from EBCV Reporting Station
Few Clouds Few Clouds  
Wind Chill:   Ceiling: Unl
Heat Index:   Visibility: 6mi
Dew Point:   Wind: 14mph
Humidity: 76%   Direction: 280°W
Pressure: 30.06"   Gusts: NA
Location:  50.79°N, 4.11°E
Report Text: EBCV 220025Z AUTO 28012KT 9999 FEW038/// 08/04 Q1018 BLU
Loading
Personal Weather Stations






























Interactive Weather Map
Tropical Storm Tracking
New forecast layout! Learn more

10-Day Weather Forecast

Advertisements
Track Severe Weather on mobile